sensor_id;sensor_type;location;lat;lon;timestamp;pressure;altitude;pressure_sealevel;temperature;humidity
61359;BME280;47228;46.762;23.598;2023-06-19T00:01:18;97275.23;;;15.42;85.05
61359;BME280;47228;46.762;23.598;2023-06-19T00:03:46;97274.93;;;15.38;85.32
61359;BME280;47228;46.762;23.598;2023-06-19T00:06:14;97270.20;;;15.34;85.47
61359;BME280;47228;46.762;23.598;2023-06-19T00:08:42;97269.39;;;15.31;85.71
61359;BME280;47228;46.762;23.598;2023-06-19T00:11:10;97266.90;;;15.27;85.87
61359;BME280;47228;46.762;23.598;2023-06-19T00:13:38;97271.22;;;15.24;85.86
61359;BME280;47228;46.762;23.598;2023-06-19T00:16:07;97274.06;;;15.21;86.07
61359;BME280;47228;46.762;23.598;2023-06-19T00:18:35;97269.02;;;15.18;86.23
61359;BME280;47228;46.762;23.598;2023-06-19T00:21:08;97266.70;;;15.15;86.39
61359;BME280;47228;46.762;23.598;2023-06-19T00:23:36;97264.73;;;15.13;86.22
61359;BME280;47228;46.762;23.598;2023-06-19T00:26:04;97268.83;;;15.09;86.46
61359;BME280;47228;46.762;23.598;2023-06-19T00:28:32;97267.27;;;15.06;86.38
61359;BME280;47228;46.762;23.598;2023-06-19T00:31:00;97266.61;;;15.03;86.43
61359;BME280;47228;46.762;23.598;2023-06-19T00:33:28;97267.73;;;14.98;86.69
61359;BME280;47228;46.762;23.598;2023-06-19T00:35:56;97269.42;;;14.94;86.78
61359;BME280;47228;46.762;23.598;2023-06-19T00:38:24;97267.59;;;14.94;87.25
61359;BME280;47228;46.762;23.598;2023-06-19T00:40:52;97269.76;;;14.95;87.39
61359;BME280;47228;46.762;23.598;2023-06-19T00:43:20;97273.25;;;14.98;87.24
61359;BME280;47228;46.762;23.598;2023-06-19T00:45:48;97281.50;;;15.04;87.55
61359;BME280;47228;46.762;23.598;2023-06-19T00:48:17;97281.10;;;15.08;87.52
61359;BME280;47228;46.762;23.598;2023-06-19T00:50:45;97283.36;;;15.08;87.47
61359;BME280;47228;46.762;23.598;2023-06-19T00:53:12;97285.15;;;15.09;87.38
61359;BME280;47228;46.762;23.598;2023-06-19T00:55:40;97280.50;;;15.09;87.11
61359;BME280;47228;46.762;23.598;2023-06-19T00:58:09;97277.88;;;15.08;87.12
61359;BME280;47228;46.762;23.598;2023-06-19T01:00:38;97279.48;;;15.08;87.19
61359;BME280;47228;46.762;23.598;2023-06-19T01:03:06;97276.96;;;15.09;87.34
61359;BME280;47228;46.762;23.598;2023-06-19T01:05:34;97272.20;;;15.10;87.25
61359;BME280;47228;46.762;23.598;2023-06-19T01:10:50;97273.77;;;15.08;86.85
61359;BME280;47228;46.762;23.598;2023-06-19T01:13:50;97271.52;;;15.05;86.64
61359;BME280;47228;46.762;23.598;2023-06-19T01:16:18;97269.02;;;15.05;86.91
61359;BME280;47228;46.762;23.598;2023-06-19T01:18:48;97266.18;;;15.08;86.92
61359;BME280;47228;46.762;23.598;2023-06-19T01:21:18;97258.23;;;15.12;86.94
61359;BME280;47228;46.762;23.598;2023-06-19T01:23:46;97257.75;;;15.14;86.72
61359;BME280;47228;46.762;23.598;2023-06-19T01:26:17;97253.58;;;15.14;86.45
61359;BME280;47228;46.762;23.598;2023-06-19T01:28:48;97248.99;;;15.15;86.19
61359;BME280;47228;46.762;23.598;2023-06-19T01:31:46;97247.14;;;15.16;86.21
61359;BME280;47228;46.762;23.598;2023-06-19T01:34:18;97248.30;;;15.15;85.76
61359;BME280;47228;46.762;23.598;2023-06-19T01:36:48;97244.33;;;15.11;85.64
61359;BME280;47228;46.762;23.598;2023-06-19T01:39:18;97242.08;;;15.09;85.42
61359;BME280;47228;46.762;23.598;2023-06-19T01:41:48;97244.31;;;15.06;85.26
61359;BME280;47228;46.762;23.598;2023-06-19T01:44:16;97240.33;;;15.03;85.16
61359;BME280;47228;46.762;23.598;2023-06-19T01:46:47;97239.04;;;14.99;85.11
61359;BME280;47228;46.762;23.598;2023-06-19T01:49:17;97238.00;;;14.98;85.14
61359;BME280;47228;46.762;23.598;2023-06-19T01:51:45;97237.77;;;14.97;85.12
61359;BME280;47228;46.762;23.598;2023-06-19T01:54:13;97235.52;;;14.97;85.12
61359;BME280;47228;46.762;23.598;2023-06-19T01:56:41;97231.73;;;14.97;85.06
61359;BME280;47228;46.762;23.598;2023-06-19T01:59:09;97235.84;;;14.97;85.08
61359;BME280;47228;46.762;23.598;2023-06-19T02:01:37;97239.20;;;14.96;85.01
61359;BME280;47228;46.762;23.598;2023-06-19T02:04:05;97241.45;;;14.94;84.93
61359;BME280;47228;46.762;23.598;2023-06-19T02:06:33;97238.95;;;14.92;85.00
61359;BME280;47228;46.762;23.598;2023-06-19T02:09:01;97236.88;;;14.90;85.07
61359;BME280;47228;46.762;23.598;2023-06-19T02:11:29;97231.41;;;14.90;85.20
61359;BME280;47228;46.762;23.598;2023-06-19T02:13:57;97229.63;;;14.89;85.11
61359;BME280;47228;46.762;23.598;2023-06-19T02:16:25;97230.05;;;14.87;84.87
61359;BME280;47228;46.762;23.598;2023-06-19T02:18:53;97235.61;;;14.84;84.82
61359;BME280;47228;46.762;23.598;2023-06-19T02:21:22;97237.05;;;14.82;85.00
61359;BME280;47228;46.762;23.598;2023-06-19T02:23:50;97238.83;;;14.79;85.08
61359;BME280;47228;46.762;23.598;2023-06-19T02:26:18;97239.58;;;14.77;84.68
61359;BME280;47228;46.762;23.598;2023-06-19T02:28:46;97239.67;;;14.72;84.61
61359;BME280;47228;46.762;23.598;2023-06-19T02:31:14;97240.36;;;14.70;84.79
61359;BME280;47228;46.762;23.598;2023-06-19T02:33:42;97241.55;;;14.66;84.52
61359;BME280;47228;46.762;23.598;2023-06-19T02:36:10;97240.30;;;14.62;84.89
61359;BME280;47228;46.762;23.598;2023-06-19T02:38:38;97237.78;;;14.60;84.84
61359;BME280;47228;46.762;23.598;2023-06-19T02:41:06;97241.78;;;14.57;84.69
61359;BME280;47228;46.762;23.598;2023-06-19T02:43:34;97249.17;;;14.55;84.76
61359;BME280;47228;46.762;23.598;2023-06-19T02:46:02;97251.52;;;14.55;85.00
61359;BME280;47228;46.762;23.598;2023-06-19T02:48:30;97250.60;;;14.55;85.02
61359;BME280;47228;46.762;23.598;2023-06-19T02:50:58;97253.65;;;14.57;84.99
61359;BME280;47228;46.762;23.598;2023-06-19T02:53:26;97251.80;;;14.60;84.84
61359;BME280;47228;46.762;23.598;2023-06-19T02:55:54;97249.65;;;14.62;84.76
61359;BME280;47228;46.762;23.598;2023-06-19T02:58:22;97251.95;;;14.64;84.84
61359;BME280;47228;46.762;23.598;2023-06-19T03:00:50;97255.42;;;14.67;84.89
61359;BME280;47228;46.762;23.598;2023-06-19T03:03:18;97258.27;;;14.71;85.06
61359;BME280;47228;46.762;23.598;2023-06-19T03:05:46;97263.30;;;14.73;84.75
61359;BME280;47228;46.762;23.598;2023-06-19T03:08:14;97263.19;;;14.75;85.06
61359;BME280;47228;46.762;23.598;2023-06-19T03:10:42;97263.64;;;14.76;84.94
61359;BME280;47228;46.762;23.598;2023-06-19T03:13:10;97270.58;;;14.73;84.98
61359;BME280;47228;46.762;23.598;2023-06-19T03:15:38;97274.23;;;14.71;85.24
61359;BME280;47228;46.762;23.598;2023-06-19T03:18:06;97280.64;;;14.71;85.51
61359;BME280;47228;46.762;23.598;2023-06-19T03:20:36;97284.02;;;14.71;85.70
61359;BME280;47228;46.762;23.598;2023-06-19T03:23:04;97285.19;;;14.71;85.72
61359;BME280;47228;46.762;23.598;2023-06-19T03:25:32;97287.04;;;14.70;85.78
61359;BME280;47228;46.762;23.598;2023-06-19T03:28:03;97286.51;;;14.73;85.83
61359;BME280;47228;46.762;23.598;2023-06-19T03:30:34;97290.82;;;14.76;85.94
61359;BME280;47228;46.762;23.598;2023-06-19T03:33:02;97287.09;;;14.81;86.07
61359;BME280;47228;46.762;23.598;2023-06-19T03:35:30;97282.39;;;14.86;86.19
61359;BME280;47228;46.762;23.598;2023-06-19T03:37:58;97283.91;;;14.92;86.21
61359;BME280;47228;46.762;23.598;2023-06-19T03:40:26;97285.52;;;14.96;86.08
61359;BME280;47228;46.762;23.598;2023-06-19T03:42:59;97285.07;;;14.98;86.11
61359;BME280;47228;46.762;23.598;2023-06-19T03:45:27;97284.89;;;15.00;86.07
61359;BME280;47228;46.762;23.598;2023-06-19T03:47:55;97283.04;;;15.03;86.27
61359;BME280;47228;46.762;23.598;2023-06-19T03:50:23;97281.32;;;15.05;86.34
61359;BME280;47228;46.762;23.598;2023-06-19T03:52:54;97281.91;;;15.08;86.25
61359;BME280;47228;46.762;23.598;2023-06-19T03:55:22;97278.66;;;15.11;85.95
61359;BME280;47228;46.762;23.598;2023-06-19T03:57:50;97277.15;;;15.13;85.68
61359;BME280;47228;46.762;23.598;2023-06-19T04:00:18;97280.19;;;15.15;85.66
61359;BME280;47228;46.762;23.598;2023-06-19T04:02:46;97277.23;;;15.17;85.71
61359;BME280;47228;46.762;23.598;2023-06-19T04:05:14;97276.89;;;15.18;85.63
61359;BME280;47228;46.762;23.598;2023-06-19T04:07:46;97277.50;;;15.20;85.73
61359;BME280;47228;46.762;23.598;2023-06-19T04:10:14;97277.65;;;15.21;85.60
61359;BME280;47228;46.762;23.598;2023-06-19T04:12:42;97278.89;;;15.22;85.32
61359;BME280;47228;46.762;23.598;2023-06-19T04:15:13;97278.07;;;15.21;85.34
61359;BME280;47228;46.762;23.598;2023-06-19T04:17:41;97278.36;;;15.22;85.57
61359;BME280;47228;46.762;23.598;2023-06-19T04:20:09;97275.87;;;15.26;85.75
61359;BME280;47228;46.762;23.598;2023-06-19T04:22:48;97272.70;;;15.28;85.48
61359;BME280;47228;46.762;23.598;2023-06-19T04:25:16;97272.44;;;15.31;85.65
61359;BME280;47228;46.762;23.598;2023-06-19T04:27:45;97274.82;;;15.35;85.72
61359;BME280;47228;46.762;23.598;2023-06-19T04:30:13;97274.38;;;15.37;85.36
61359;BME280;47228;46.762;23.598;2023-06-19T04:32:41;97276.64;;;15.37;85.16
61359;BME280;47228;46.762;23.598;2023-06-19T04:35:10;97281.90;;;15.38;85.34
61359;BME280;47228;46.762;23.598;2023-06-19T04:37:38;97277.09;;;15.41;85.91
61359;BME280;47228;46.762;23.598;2023-06-19T04:40:06;97278.83;;;15.48;85.81
61359;BME280;47228;46.762;23.598;2023-06-19T04:42:35;97276.85;;;15.54;85.75
61359;BME280;47228;46.762;23.598;2023-06-19T04:45:03;97274.56;;;15.57;85.54
61359;BME280;47228;46.762;23.598;2023-06-19T04:47:34;97276.39;;;15.60;85.50
61359;BME280;47228;46.762;23.598;2023-06-19T04:50:20;97272.38;;;15.63;85.27
61359;BME280;47228;46.762;23.598;2023-06-19T04:52:49;97274.32;;;15.64;85.13
61359;BME280;47228;46.762;23.598;2023-06-19T04:55:19;97277.88;;;15.68;85.23
61359;BME280;47228;46.762;23.598;2023-06-19T04:57:47;97276.80;;;15.73;85.36
61359;BME280;47228;46.762;23.598;2023-06-19T05:00:16;97278.23;;;15.79;85.47
61359;BME280;47228;46.762;23.598;2023-06-19T05:02:47;97275.23;;;15.84;85.35
61359;BME280;47228;46.762;23.598;2023-06-19T05:05:16;97278.19;;;15.87;85.01
61359;BME280;47228;46.762;23.598;2023-06-19T05:07:44;97278.00;;;15.89;84.84
61359;BME280;47228;46.762;23.598;2023-06-19T05:10:13;97277.86;;;15.93;85.08
61359;BME280;47228;46.762;23.598;2023-06-19T05:12:41;97276.41;;;15.98;85.10
61359;BME280;47228;46.762;23.598;2023-06-19T05:15:09;97277.78;;;16.02;85.03
61359;BME280;47228;46.762;23.598;2023-06-19T05:17:37;97279.05;;;16.08;84.91
61359;BME280;47228;46.762;23.598;2023-06-19T05:20:07;97282.38;;;16.14;85.10
61359;BME280;47228;46.762;23.598;2023-06-19T05:22:35;97282.94;;;16.22;85.44
61359;BME280;47228;46.762;23.598;2023-06-19T05:25:05;97280.73;;;16.29;84.88
61359;BME280;47228;46.762;23.598;2023-06-19T05:27:33;97279.95;;;16.36;84.93
61359;BME280;47228;46.762;23.598;2023-06-19T05:30:01;97284.00;;;16.41;84.19
61359;BME280;47228;46.762;23.598;2023-06-19T05:32:29;97289.38;;;16.46;84.00
61359;BME280;47228;46.762;23.598;2023-06-19T05:34:57;97292.89;;;16.50;84.55
61359;BME280;47228;46.762;23.598;2023-06-19T05:37:25;97300.05;;;16.56;84.40
61359;BME280;47228;46.762;23.598;2023-06-19T05:39:54;97301.44;;;16.62;84.16
61359;BME280;47228;46.762;23.598;2023-06-19T05:42:22;97305.42;;;16.70;84.19
61359;BME280;47228;46.762;23.598;2023-06-19T05:44:50;97303.95;;;16.76;83.74
61359;BME280;47228;46.762;23.598;2023-06-19T05:47:18;97303.55;;;16.82;83.56
61359;BME280;47228;46.762;23.598;2023-06-19T05:49:48;97309.23;;;16.87;83.40
61359;BME280;47228;46.762;23.598;2023-06-19T05:52:16;97310.05;;;16.92;83.07
61359;BME280;47228;46.762;23.598;2023-06-19T05:54:44;97314.80;;;16.98;82.92
61359;BME280;47228;46.762;23.598;2023-06-19T05:57:12;97321.08;;;17.04;83.11
61359;BME280;47228;46.762;23.598;2023-06-19T05:59:43;97324.05;;;17.12;83.52
61359;BME280;47228;46.762;23.598;2023-06-19T06:02:11;97323.35;;;17.21;83.49
61359;BME280;47228;46.762;23.598;2023-06-19T06:04:39;97323.98;;;17.28;83.46
61359;BME280;47228;46.762;23.598;2023-06-19T06:07:07;97324.11;;;17.33;83.23
61359;BME280;47228;46.762;23.598;2023-06-19T06:09:35;97323.44;;;17.38;83.26
61359;BME280;47228;46.762;23.598;2023-06-19T06:12:04;97323.60;;;17.43;82.88
61359;BME280;47228;46.762;23.598;2023-06-19T06:14:32;97325.08;;;17.45;82.65
61359;BME280;47228;46.762;23.598;2023-06-19T06:17:00;97325.23;;;17.46;82.69
61359;BME280;47228;46.762;23.598;2023-06-19T06:19:28;97328.92;;;17.48;82.50
61359;BME280;47228;46.762;23.598;2023-06-19T06:21:58;97326.79;;;17.50;82.53
61359;BME280;47228;46.762;23.598;2023-06-19T06:24:26;97327.72;;;17.54;82.87
61359;BME280;47228;46.762;23.598;2023-06-19T06:26:55;97332.23;;;17.58;82.76
61359;BME280;47228;46.762;23.598;2023-06-19T06:29:23;97328.41;;;17.63;82.65
61359;BME280;47228;46.762;23.598;2023-06-19T06:31:50;97331.83;;;17.70;82.28
61359;BME280;47228;46.762;23.598;2023-06-19T06:34:21;97328.95;;;17.73;81.97
61359;BME280;47228;46.762;23.598;2023-06-19T06:36:49;97331.12;;;17.79;82.39
61359;BME280;47228;46.762;23.598;2023-06-19T06:39:32;97332.02;;;17.83;81.53
61359;BME280;47228;46.762;23.598;2023-06-19T06:42:01;97331.79;;;17.85;81.06
61359;BME280;47228;46.762;23.598;2023-06-19T06:44:30;97330.33;;;17.88;81.24
61359;BME280;47228;46.762;23.598;2023-06-19T06:46:58;97329.84;;;17.94;81.53
61359;BME280;47228;46.762;23.598;2023-06-19T06:49:26;97329.77;;;18.02;81.14
61359;BME280;47228;46.762;23.598;2023-06-19T06:51:54;97330.09;;;18.07;80.19
61359;BME280;47228;46.762;23.598;2023-06-19T06:54:24;97331.39;;;18.12;80.05
61359;BME280;47228;46.762;23.598;2023-06-19T06:56:52;97334.91;;;18.18;80.47
61359;BME280;47228;46.762;23.598;2023-06-19T06:59:24;97333.60;;;18.27;80.53
61359;BME280;47228;46.762;23.598;2023-06-19T07:01:55;97333.90;;;18.38;80.46
61359;BME280;47228;46.762;23.598;2023-06-19T07:04:26;97337.17;;;18.48;80.13
61359;BME280;47228;46.762;23.598;2023-06-19T07:06:54;97336.29;;;18.57;79.81
61359;BME280;47228;46.762;23.598;2023-06-19T07:09:22;97335.52;;;18.69;79.89
61359;BME280;47228;46.762;23.598;2023-06-19T07:11:50;97332.86;;;18.80;79.76
61359;BME280;47228;46.762;23.598;2023-06-19T07:14:20;97337.16;;;18.93;80.17
61359;BME280;47228;46.762;23.598;2023-06-19T07:16:49;97337.04;;;19.05;79.05
61359;BME280;47228;46.762;23.598;2023-06-19T07:19:18;97337.59;;;19.14;78.75
61359;BME280;47228;46.762;23.598;2023-06-19T07:21:46;97340.48;;;19.23;78.42
61359;BME280;47228;46.762;23.598;2023-06-19T07:24:17;97340.77;;;19.35;77.68
61359;BME280;47228;46.762;23.598;2023-06-19T07:26:48;97343.79;;;19.43;77.54
61359;BME280;47228;46.762;23.598;2023-06-19T07:29:16;97340.39;;;19.53;77.03
61359;BME280;47228;46.762;23.598;2023-06-19T07:31:44;97342.21;;;19.62;76.62
61359;BME280;47228;46.762;23.598;2023-06-19T07:34:13;97344.45;;;19.71;76.27
61359;BME280;47228;46.762;23.598;2023-06-19T07:36:41;97348.38;;;19.81;75.30
61359;BME280;47228;46.762;23.598;2023-06-19T07:39:10;97349.59;;;19.89;75.11
61359;BME280;47228;46.762;23.598;2023-06-19T07:41:38;97355.59;;;19.97;74.98
61359;BME280;47228;46.762;23.598;2023-06-19T07:44:06;97356.57;;;20.05;75.21
61359;BME280;47228;46.762;23.598;2023-06-19T07:46:34;97354.85;;;20.12;75.43
61359;BME280;47228;46.762;23.598;2023-06-19T07:49:02;97352.95;;;20.20;74.71
61359;BME280;47228;46.762;23.598;2023-06-19T07:51:30;97352.95;;;20.24;73.71
61359;BME280;47228;46.762;23.598;2023-06-19T07:53:58;97354.04;;;20.31;74.30
61359;BME280;47228;46.762;23.598;2023-06-19T07:56:26;97355.73;;;20.39;74.48
61359;BME280;47228;46.762;23.598;2023-06-19T07:58:54;97352.50;;;20.45;74.03
61359;BME280;47228;46.762;23.598;2023-06-19T08:01:22;97356.16;;;20.51;73.41
61359;BME280;47228;46.762;23.598;2023-06-19T08:03:50;97353.05;;;20.58;73.34
61359;BME280;47228;46.762;23.598;2023-06-19T08:06:18;97353.43;;;20.68;72.98
61359;BME280;47228;46.762;23.598;2023-06-19T08:08:46;97354.88;;;20.77;72.50
61359;BME280;47228;46.762;23.598;2023-06-19T08:11:14;97356.71;;;20.85;71.58
61359;BME280;47228;46.762;23.598;2023-06-19T08:13:42;97355.77;;;20.92;71.43
61359;BME280;47228;46.762;23.598;2023-06-19T08:16:10;97353.98;;;21.01;71.05
61359;BME280;47228;46.762;23.598;2023-06-19T08:18:38;97356.09;;;21.09;71.64
61359;BME280;47228;46.762;23.598;2023-06-19T08:21:06;97357.52;;;21.22;71.28
61359;BME280;47228;46.762;23.598;2023-06-19T08:23:34;97357.12;;;21.31;70.29
61359;BME280;47228;46.762;23.598;2023-06-19T08:26:02;97356.12;;;21.43;69.99
61359;BME280;47228;46.762;23.598;2023-06-19T08:28:33;97355.50;;;21.51;69.25
61359;BME280;47228;46.762;23.598;2023-06-19T08:31:01;97353.27;;;21.61;69.59
61359;BME280;47228;46.762;23.598;2023-06-19T08:33:30;97356.05;;;21.75;69.36
61359;BME280;47228;46.762;23.598;2023-06-19T08:35:58;97352.21;;;21.89;68.56
61359;BME280;47228;46.762;23.598;2023-06-19T08:38:26;97354.52;;;22.01;67.90
61359;BME280;47228;46.762;23.598;2023-06-19T08:40:54;97356.69;;;22.14;68.04
61359;BME280;47228;46.762;23.598;2023-06-19T08:43:23;97355.84;;;22.21;66.25
61359;BME280;47228;46.762;23.598;2023-06-19T08:48:34;97353.86;;;22.33;66.44
61359;BME280;47228;46.762;23.598;2023-06-19T08:51:06;97355.29;;;22.45;65.72
61359;BME280;47228;46.762;23.598;2023-06-19T08:53:36;97355.60;;;22.59;65.12
61359;BME280;47228;46.762;23.598;2023-06-19T08:56:04;97356.98;;;22.70;65.54
61359;BME280;47228;46.762;23.598;2023-06-19T08:58:32;97357.63;;;22.78;65.64
61359;BME280;47228;46.762;23.598;2023-06-19T09:01:00;97352.13;;;22.82;64.37
61359;BME280;47228;46.762;23.598;2023-06-19T09:03:28;97349.73;;;22.77;64.86
61359;BME280;47228;46.762;23.598;2023-06-19T09:06:02;97347.95;;;22.69;63.49
61359;BME280;47228;46.762;23.598;2023-06-19T09:08:30;97346.51;;;22.60;64.00
61359;BME280;47228;46.762;23.598;2023-06-19T09:11:03;97341.46;;;22.61;64.53
61359;BME280;47228;46.762;23.598;2023-06-19T09:13:32;97338.44;;;22.75;64.53
61359;BME280;47228;46.762;23.598;2023-06-19T09:16:08;97337.84;;;22.93;64.41
61359;BME280;47228;46.762;23.598;2023-06-19T09:18:46;97336.16;;;23.12;64.08
61359;BME280;47228;46.762;23.598;2023-06-19T09:21:19;97327.96;;;23.24;62.27
61359;BME280;47228;46.762;23.598;2023-06-19T09:23:49;97325.09;;;23.35;62.59
61359;BME280;47228;46.762;23.598;2023-06-19T09:26:20;97325.69;;;23.51;63.42
61359;BME280;47228;46.762;23.598;2023-06-19T09:28:48;97325.98;;;23.72;62.83
61359;BME280;47228;46.762;23.598;2023-06-19T09:31:18;97318.59;;;23.85;61.31
61359;BME280;47228;46.762;23.598;2023-06-19T09:33:46;97321.27;;;23.85;60.01
61359;BME280;47228;46.762;23.598;2023-06-19T09:36:14;97321.27;;;23.70;59.67
61359;BME280;47228;46.762;23.598;2023-06-19T09:38:42;97321.55;;;23.57;60.54
61359;BME280;47228;46.762;23.598;2023-06-19T09:41:10;97322.52;;;23.48;60.86
61359;BME280;47228;46.762;23.598;2023-06-19T09:43:42;97327.93;;;23.39;60.21
61359;BME280;47228;46.762;23.598;2023-06-19T09:46:11;97328.29;;;23.28;59.93
61359;BME280;47228;46.762;23.598;2023-06-19T09:48:44;97325.04;;;23.18;60.09
61359;BME280;47228;46.762;23.598;2023-06-19T09:51:20;97322.24;;;23.10;61.09
61359;BME280;47228;46.762;23.598;2023-06-19T09:53:49;97316.09;;;23.03;62.18
61359;BME280;47228;46.762;23.598;2023-06-19T09:56:17;97317.14;;;22.99;62.61
61359;BME280;47228;46.762;23.598;2023-06-19T09:58:51;97316.92;;;22.95;60.93
61359;BME280;47228;46.762;23.598;2023-06-19T10:01:20;97319.69;;;22.90;60.87
61359;BME280;47228;46.762;23.598;2023-06-19T10:03:48;97317.10;;;22.88;60.92
61359;BME280;47228;46.762;23.598;2023-06-19T10:06:17;97315.63;;;22.89;61.42
61359;BME280;47228;46.762;23.598;2023-06-19T10:08:46;97316.48;;;22.89;62.34
61359;BME280;47228;46.762;23.598;2023-06-19T10:11:15;97315.14;;;22.88;62.69
61359;BME280;47228;46.762;23.598;2023-06-19T10:13:43;97314.17;;;22.93;62.75
61359;BME280;47228;46.762;23.598;2023-06-19T10:16:22;97305.72;;;23.16;62.84
61359;BME280;47228;46.762;23.598;2023-06-19T10:18:51;97301.54;;;23.48;61.77
61359;BME280;47228;46.762;23.598;2023-06-19T10:21:20;97297.28;;;23.82;60.71
61359;BME280;47228;46.762;23.598;2023-06-19T10:23:55;97295.36;;;24.12;58.78
61359;BME280;47228;46.762;23.598;2023-06-19T10:26:32;97295.09;;;24.24;56.78
61359;BME280;47228;46.762;23.598;2023-06-19T10:29:00;97294.16;;;24.43;56.61
61359;BME280;47228;46.762;23.598;2023-06-19T10:31:28;97292.75;;;24.53;54.65
61359;BME280;47228;46.762;23.598;2023-06-19T10:33:56;97296.57;;;24.55;54.85
61359;BME280;47228;46.762;23.598;2023-06-19T10:36:25;97290.23;;;24.66;54.45
61359;BME280;47228;46.762;23.598;2023-06-19T10:38:56;97292.90;;;24.86;53.56
61359;BME280;47228;46.762;23.598;2023-06-19T10:41:25;97294.66;;;25.10;53.01
61359;BME280;47228;46.762;23.598;2023-06-19T10:43:56;97289.39;;;25.30;53.39
61359;BME280;47228;46.762;23.598;2023-06-19T10:46:29;97293.52;;;25.33;52.64
61359;BME280;47228;46.762;23.598;2023-06-19T10:48:59;97289.92;;;25.28;53.27
61359;BME280;47228;46.762;23.598;2023-06-19T10:51:30;97292.52;;;25.19;52.67
61359;BME280;47228;46.762;23.598;2023-06-19T10:53:58;97291.98;;;25.05;51.37
61359;BME280;47228;46.762;23.598;2023-06-19T10:56:26;97289.29;;;24.85;50.09
61359;BME280;47228;46.762;23.598;2023-06-19T10:59:02;97283.09;;;24.66;49.02
61359;BME280;47228;46.762;23.598;2023-06-19T11:01:41;97278.52;;;24.56;49.62
61359;BME280;47228;46.762;23.598;2023-06-19T11:04:11;97279.56;;;24.52;49.15
61359;BME280;47228;46.762;23.598;2023-06-19T11:06:40;97282.29;;;24.48;49.50
61359;BME280;47228;46.762;23.598;2023-06-19T11:09:09;97282.10;;;24.42;50.01
61359;BME280;47228;46.762;23.598;2023-06-19T11:11:46;97277.63;;;24.33;49.03
61359;BME280;47228;46.762;23.598;2023-06-19T11:14:16;97277.95;;;24.31;49.10
61359;BME280;47228;46.762;23.598;2023-06-19T11:16:46;97277.55;;;24.46;49.73
61359;BME280;47228;46.762;23.598;2023-06-19T11:19:17;97278.17;;;24.69;48.47
61359;BME280;47228;46.762;23.598;2023-06-19T11:21:48;97276.98;;;24.87;47.98
61359;BME280;47228;46.762;23.598;2023-06-19T11:24:17;97276.67;;;25.01;46.03
61359;BME280;47228;46.762;23.598;2023-06-19T11:26:48;97272.30;;;25.14;46.79
61359;BME280;47228;46.762;23.598;2023-06-19T11:31:49;97268.20;;;25.44;43.76
61359;BME280;47228;46.762;23.598;2023-06-19T11:34:17;97264.79;;;25.46;42.78
61359;BME280;47228;46.762;23.598;2023-06-19T11:36:50;97256.98;;;25.52;42.92
61359;BME280;47228;46.762;23.598;2023-06-19T11:39:18;97257.48;;;25.61;43.36
61359;BME280;47228;46.762;23.598;2023-06-19T11:41:46;97258.02;;;25.74;42.62
61359;BME280;47228;46.762;23.598;2023-06-19T11:44:14;97253.41;;;25.84;41.40
61359;BME280;47228;46.762;23.598;2023-06-19T11:46:43;97254.50;;;25.95;42.25
61359;BME280;47228;46.762;23.598;2023-06-19T11:49:17;97256.41;;;26.13;41.73
61359;BME280;47228;46.762;23.598;2023-06-19T11:51:46;97253.92;;;26.29;40.81
61359;BME280;47228;46.762;23.598;2023-06-19T11:54:14;97250.36;;;26.41;40.01
61359;BME280;47228;46.762;23.598;2023-06-19T11:56:42;97251.03;;;26.56;40.29
61359;BME280;47228;46.762;23.598;2023-06-19T11:59:10;97249.89;;;26.69;40.55
61359;BME280;47228;46.762;23.598;2023-06-19T12:01:38;97251.05;;;26.79;41.31
61359;BME280;47228;46.762;23.598;2023-06-19T12:04:06;97254.39;;;26.80;39.12
61359;BME280;47228;46.762;23.598;2023-06-19T12:06:35;97251.98;;;26.72;40.06
61359;BME280;47228;46.762;23.598;2023-06-19T12:09:03;97246.52;;;26.69;40.79
61359;BME280;47228;46.762;23.598;2023-06-19T12:11:34;97247.91;;;26.59;39.84
61359;BME280;47228;46.762;23.598;2023-06-19T12:14:01;97248.60;;;26.47;40.49
61359;BME280;47228;46.762;23.598;2023-06-19T12:16:30;97246.33;;;26.33;40.06
61359;BME280;47228;46.762;23.598;2023-06-19T12:18:58;97240.27;;;26.18;41.99
61359;BME280;47228;46.762;23.598;2023-06-19T12:21:26;97239.30;;;26.08;41.81
61359;BME280;47228;46.762;23.598;2023-06-19T12:24:06;97229.85;;;25.94;40.96
61359;BME280;47228;46.762;23.598;2023-06-19T12:26:35;97229.98;;;25.86;42.60
61359;BME280;47228;46.762;23.598;2023-06-19T12:29:07;97230.05;;;25.84;43.20
61359;BME280;47228;46.762;23.598;2023-06-19T12:31:35;97225.74;;;25.78;42.81
61359;BME280;47228;46.762;23.598;2023-06-19T12:34:04;97223.17;;;25.67;42.62
61359;BME280;47228;46.762;23.598;2023-06-19T12:36:53;97221.85;;;25.56;43.03
61359;BME280;47228;46.762;23.598;2023-06-19T12:39:22;97219.45;;;25.50;43.37
61359;BME280;47228;46.762;23.598;2023-06-19T12:41:53;97219.52;;;25.47;43.41
61359;BME280;47228;46.762;23.598;2023-06-19T12:44:21;97228.30;;;25.46;43.79
61359;BME280;47228;46.762;23.598;2023-06-19T12:46:50;97237.45;;;25.46;43.58
61359;BME280;47228;46.762;23.598;2023-06-19T12:49:18;97246.48;;;25.48;44.75
61359;BME280;47228;46.762;23.598;2023-06-19T12:51:46;97248.62;;;25.47;45.82
61359;BME280;47228;46.762;23.598;2023-06-19T12:54:18;97249.98;;;25.41;46.28
61359;BME280;47228;46.762;23.598;2023-06-19T12:56:46;97252.08;;;25.32;47.04
61359;BME280;47228;46.762;23.598;2023-06-19T12:59:14;97252.13;;;25.21;47.59
61359;BME280;47228;46.762;23.598;2023-06-19T13:01:43;97251.67;;;25.05;47.68
61359;BME280;47228;46.762;23.598;2023-06-19T13:04:12;97255.16;;;24.86;47.99
61359;BME280;47228;46.762;23.598;2023-06-19T13:06:40;97253.55;;;24.68;48.43
61359;BME280;47228;46.762;23.598;2023-06-19T13:09:08;97250.58;;;24.58;48.92